sensor_id;sensor_type;location;lat;lon;timestamp;P1;durP1;ratioP1;P2;durP2;ratioP2
19189;SDS011;9727;50.200;19.038;2023-02-26T00:00:08;16.13;;;6.97;;
19189;SDS011;9727;50.200;19.038;2023-02-26T00:02:39;12.20;;;6.77;;
19189;SDS011;9727;50.200;19.038;2023-02-26T00:05:06;14.00;;;6.83;;
19189;SDS011;9727;50.200;19.038;2023-02-26T00:07:32;10.63;;;6.13;;
19189;SDS011;9727;50.200;19.038;2023-02-26T00:10:02;11.67;;;6.40;;
19189;SDS011;9727;50.200;19.038;2023-02-26T00:12:29;12.50;;;6.73;;
19189;SDS011;9727;50.200;19.038;2023-02-26T00:14:58;9.47;;;6.20;;
19189;SDS011;9727;50.200;19.038;2023-02-26T00:17:36;9.97;;;6.23;;
19189;SDS011;9727;50.200;19.038;2023-02-26T00:20:05;10.87;;;6.23;;
19189;SDS011;9727;50.200;19.038;2023-02-26T00:22:33;11.83;;;6.40;;
19189;SDS011;9727;50.200;19.038;2023-02-26T00:25:00;9.57;;;6.03;;
19189;SDS011;9727;50.200;19.038;2023-02-26T00:27:27;10.03;;;5.97;;
19189;SDS011;9727;50.200;19.038;2023-02-26T00:29:54;10.23;;;6.50;;
19189;SDS011;9727;50.200;19.038;2023-02-26T00:32:22;12.00;;;6.57;;
19189;SDS011;9727;50.200;19.038;2023-02-26T00:34:49;10.97;;;6.90;;
19189;SDS011;9727;50.200;19.038;2023-02-26T00:37:21;10.40;;;6.47;;
19189;SDS011;9727;50.200;19.038;2023-02-26T00:39:50;9.43;;;6.33;;
19189;SDS011;9727;50.200;19.038;2023-02-26T00:42:20;11.60;;;6.53;;
19189;SDS011;9727;50.200;19.038;2023-02-26T00:44:47;11.43;;;6.97;;
19189;SDS011;9727;50.200;19.038;2023-02-26T00:47:22;10.50;;;6.07;;
19189;SDS011;9727;50.200;19.038;2023-02-26T00:49:55;10.37;;;6.30;;
19189;SDS011;9727;50.200;19.038;2023-02-26T00:52:28;10.17;;;6.47;;
19189;SDS011;9727;50.200;19.038;2023-02-26T00:54:58;12.87;;;6.73;;
19189;SDS011;9727;50.200;19.038;2023-02-26T00:57:26;13.20;;;7.50;;
19189;SDS011;9727;50.200;19.038;2023-02-26T00:59:53;13.53;;;7.10;;
19189;SDS011;9727;50.200;19.038;2023-02-26T01:02:20;10.23;;;6.60;;
19189;SDS011;9727;50.200;19.038;2023-02-26T01:04:46;12.60;;;7.10;;
19189;SDS011;9727;50.200;19.038;2023-02-26T01:07:15;10.60;;;6.77;;
19189;SDS011;9727;50.200;19.038;2023-02-26T01:09:44;11.73;;;6.67;;
19189;SDS011;9727;50.200;19.038;2023-02-26T01:12:11;11.50;;;6.50;;
19189;SDS011;9727;50.200;19.038;2023-02-26T01:14:38;9.90;;;6.60;;
19189;SDS011;9727;50.200;19.038;2023-02-26T01:17:07;10.47;;;6.67;;
19189;SDS011;9727;50.200;19.038;2023-02-26T01:19:37;11.70;;;6.70;;
19189;SDS011;9727;50.200;19.038;2023-02-26T01:22:09;10.63;;;6.40;;
19189;SDS011;9727;50.200;19.038;2023-02-26T01:24:38;12.07;;;6.63;;
19189;SDS011;9727;50.200;19.038;2023-02-26T01:27:05;11.43;;;6.47;;
19189;SDS011;9727;50.200;19.038;2023-02-26T01:29:32;10.67;;;6.83;;
19189;SDS011;9727;50.200;19.038;2023-02-26T01:32:03;13.07;;;7.07;;
19189;SDS011;9727;50.200;19.038;2023-02-26T01:34:33;13.23;;;8.07;;
19189;SDS011;9727;50.200;19.038;2023-02-26T01:37:01;13.77;;;8.40;;
19189;SDS011;9727;50.200;19.038;2023-02-26T01:39:34;14.47;;;8.47;;
19189;SDS011;9727;50.200;19.038;2023-02-26T01:42:05;12.13;;;7.80;;
19189;SDS011;9727;50.200;19.038;2023-02-26T01:44:39;10.60;;;7.87;;
19189;SDS011;9727;50.200;19.038;2023-02-26T01:47:12;11.50;;;7.70;;
19189;SDS011;9727;50.200;19.038;2023-02-26T01:49:41;12.13;;;8.10;;
19189;SDS011;9727;50.200;19.038;2023-02-26T01:54:49;13.17;;;7.80;;
19189;SDS011;9727;50.200;19.038;2023-02-26T01:57:17;11.07;;;7.07;;
19189;SDS011;9727;50.200;19.038;2023-02-26T01:59:46;11.13;;;6.70;;
19189;SDS011;9727;50.200;19.038;2023-02-26T02:02:14;10.20;;;7.07;;
19189;SDS011;9727;50.200;19.038;2023-02-26T02:04:42;11.60;;;6.90;;
19189;SDS011;9727;50.200;19.038;2023-02-26T02:07:09;10.47;;;6.20;;
19189;SDS011;9727;50.200;19.038;2023-02-26T02:09:36;9.63;;;6.47;;
19189;SDS011;9727;50.200;19.038;2023-02-26T02:12:07;10.47;;;6.57;;
19189;SDS011;9727;50.200;19.038;2023-02-26T02:14:40;11.27;;;6.70;;
19189;SDS011;9727;50.200;19.038;2023-02-26T02:17:09;11.50;;;6.97;;
19189;SDS011;9727;50.200;19.038;2023-02-26T02:19:55;10.33;;;7.13;;
19189;SDS011;9727;50.200;19.038;2023-02-26T02:22:39;10.93;;;6.33;;
19189;SDS011;9727;50.200;19.038;2023-02-26T02:25:13;11.03;;;7.00;;
19189;SDS011;9727;50.200;19.038;2023-02-26T02:27:42;10.67;;;7.13;;
19189;SDS011;9727;50.200;19.038;2023-02-26T02:30:19;11.60;;;5.90;;
19189;SDS011;9727;50.200;19.038;2023-02-26T02:32:53;8.10;;;5.77;;
19189;SDS011;9727;50.200;19.038;2023-02-26T02:35:23;9.63;;;6.10;;
19189;SDS011;9727;50.200;19.038;2023-02-26T02:37:53;8.00;;;5.27;;
19189;SDS011;9727;50.200;19.038;2023-02-26T02:40:22;9.23;;;6.63;;
19189;SDS011;9727;50.200;19.038;2023-02-26T02:42:52;11.10;;;6.27;;
19189;SDS011;9727;50.200;19.038;2023-02-26T02:45:21;11.27;;;6.50;;
19189;SDS011;9727;50.200;19.038;2023-02-26T02:47:51;9.13;;;6.70;;
19189;SDS011;9727;50.200;19.038;2023-02-26T02:50:24;12.03;;;7.13;;
19189;SDS011;9727;50.200;19.038;2023-02-26T02:52:53;12.67;;;6.33;;
19189;SDS011;9727;50.200;19.038;2023-02-26T02:55:22;10.27;;;6.70;;
19189;SDS011;9727;50.200;19.038;2023-02-26T02:57:51;10.70;;;6.53;;
19189;SDS011;9727;50.200;19.038;2023-02-26T03:00:20;10.70;;;6.27;;
19189;SDS011;9727;50.200;19.038;2023-02-26T03:02:48;12.13;;;6.30;;
19189;SDS011;9727;50.200;19.038;2023-02-26T03:05:16;8.77;;;6.13;;
19189;SDS011;9727;50.200;19.038;2023-02-26T03:07:46;9.23;;;5.70;;
19189;SDS011;9727;50.200;19.038;2023-02-26T03:10:13;10.27;;;5.93;;
19189;SDS011;9727;50.200;19.038;2023-02-26T03:12:39;9.40;;;5.90;;
19189;SDS011;9727;50.200;19.038;2023-02-26T03:15:06;9.90;;;5.90;;
19189;SDS011;9727;50.200;19.038;2023-02-26T03:17:35;8.87;;;6.07;;
19189;SDS011;9727;50.200;19.038;2023-02-26T03:20:12;8.40;;;5.60;;
19189;SDS011;9727;50.200;19.038;2023-02-26T03:22:43;8.90;;;5.90;;
19189;SDS011;9727;50.200;19.038;2023-02-26T03:25:13;9.90;;;5.67;;
19189;SDS011;9727;50.200;19.038;2023-02-26T03:27:42;7.83;;;5.50;;
19189;SDS011;9727;50.200;19.038;2023-02-26T03:30:12;7.83;;;5.03;;
19189;SDS011;9727;50.200;19.038;2023-02-26T03:32:42;11.47;;;5.90;;
19189;SDS011;9727;50.200;19.038;2023-02-26T03:35:12;10.27;;;5.87;;
19189;SDS011;9727;50.200;19.038;2023-02-26T03:37:40;11.20;;;5.67;;
19189;SDS011;9727;50.200;19.038;2023-02-26T03:40:10;8.00;;;5.43;;
19189;SDS011;9727;50.200;19.038;2023-02-26T03:42:40;9.33;;;5.63;;
19189;SDS011;9727;50.200;19.038;2023-02-26T03:45:09;7.53;;;5.10;;
19189;SDS011;9727;50.200;19.038;2023-02-26T03:47:36;8.87;;;5.13;;
19189;SDS011;9727;50.200;19.038;2023-02-26T03:50:05;10.57;;;4.70;;
19189;SDS011;9727;50.200;19.038;2023-02-26T03:52:33;7.13;;;4.60;;
19189;SDS011;9727;50.200;19.038;2023-02-26T03:55:02;6.60;;;4.87;;
19189;SDS011;9727;50.200;19.038;2023-02-26T03:57:30;8.50;;;4.83;;
19189;SDS011;9727;50.200;19.038;2023-02-26T03:59:58;10.47;;;5.20;;
19189;SDS011;9727;50.200;19.038;2023-02-26T04:02:29;7.90;;;4.67;;
19189;SDS011;9727;50.200;19.038;2023-02-26T04:05:00;9.30;;;4.77;;
19189;SDS011;9727;50.200;19.038;2023-02-26T04:07:28;9.53;;;4.93;;
19189;SDS011;9727;50.200;19.038;2023-02-26T04:09:55;6.63;;;4.60;;
19189;SDS011;9727;50.200;19.038;2023-02-26T04:12:23;6.30;;;4.53;;
19189;SDS011;9727;50.200;19.038;2023-02-26T04:14:50;8.70;;;4.97;;
19189;SDS011;9727;50.200;19.038;2023-02-26T04:17:18;8.17;;;5.10;;
19189;SDS011;9727;50.200;19.038;2023-02-26T04:19:44;7.40;;;5.00;;
19189;SDS011;9727;50.200;19.038;2023-02-26T04:22:11;7.73;;;4.70;;
19189;SDS011;9727;50.200;19.038;2023-02-26T04:24:47;8.83;;;4.37;;
19189;SDS011;9727;50.200;19.038;2023-02-26T04:27:13;8.03;;;4.87;;
19189;SDS011;9727;50.200;19.038;2023-02-26T04:29:40;6.80;;;4.47;;
19189;SDS011;9727;50.200;19.038;2023-02-26T04:32:06;8.53;;;4.90;;
19189;SDS011;9727;50.200;19.038;2023-02-26T04:34:34;8.97;;;4.30;;
19189;SDS011;9727;50.200;19.038;2023-02-26T04:37:01;9.27;;;4.53;;
19189;SDS011;9727;50.200;19.038;2023-02-26T04:39:28;8.00;;;4.70;;
19189;SDS011;9727;50.200;19.038;2023-02-26T04:41:55;7.47;;;4.40;;
19189;SDS011;9727;50.200;19.038;2023-02-26T04:44:21;7.10;;;4.40;;
19189;SDS011;9727;50.200;19.038;2023-02-26T04:46:48;7.77;;;3.97;;
19189;SDS011;9727;50.200;19.038;2023-02-26T04:49:14;6.90;;;4.00;;
19189;SDS011;9727;50.200;19.038;2023-02-26T04:51:42;5.77;;;3.37;;
19189;SDS011;9727;50.200;19.038;2023-02-26T04:54:09;8.57;;;4.20;;
19189;SDS011;9727;50.200;19.038;2023-02-26T04:56:36;7.27;;;4.10;;
19189;SDS011;9727;50.200;19.038;2023-02-26T04:59:02;6.37;;;3.83;;
19189;SDS011;9727;50.200;19.038;2023-02-26T05:01:38;11.37;;;4.03;;
19189;SDS011;9727;50.200;19.038;2023-02-26T05:04:05;7.97;;;4.50;;
19189;SDS011;9727;50.200;19.038;2023-02-26T05:06:32;9.73;;;4.27;;
19189;SDS011;9727;50.200;19.038;2023-02-26T05:09:00;9.97;;;4.20;;
19189;SDS011;9727;50.200;19.038;2023-02-26T05:11:27;8.50;;;4.57;;
19189;SDS011;9727;50.200;19.038;2023-02-26T05:13:53;7.37;;;4.57;;
19189;SDS011;9727;50.200;19.038;2023-02-26T05:16:20;11.73;;;4.93;;
19189;SDS011;9727;50.200;19.038;2023-02-26T05:18:46;10.53;;;4.83;;
19189;SDS011;9727;50.200;19.038;2023-02-26T05:21:13;8.03;;;4.50;;
19189;SDS011;9727;50.200;19.038;2023-02-26T05:23:39;9.37;;;4.80;;
19189;SDS011;9727;50.200;19.038;2023-02-26T05:26:07;10.70;;;4.50;;
19189;SDS011;9727;50.200;19.038;2023-02-26T05:28:35;8.07;;;4.73;;
19189;SDS011;9727;50.200;19.038;2023-02-26T05:31:02;9.43;;;4.50;;
19189;SDS011;9727;50.200;19.038;2023-02-26T05:33:28;7.90;;;4.57;;
19189;SDS011;9727;50.200;19.038;2023-02-26T05:35:55;8.87;;;5.37;;
19189;SDS011;9727;50.200;19.038;2023-02-26T05:38:22;10.97;;;4.80;;
19189;SDS011;9727;50.200;19.038;2023-02-26T05:40:48;12.87;;;6.20;;
19189;SDS011;9727;50.200;19.038;2023-02-26T05:43:17;9.97;;;5.77;;
19189;SDS011;9727;50.200;19.038;2023-02-26T05:45:43;8.43;;;5.47;;
19189;SDS011;9727;50.200;19.038;2023-02-26T05:48:10;16.67;;;6.30;;
19189;SDS011;9727;50.200;19.038;2023-02-26T05:50:37;8.93;;;6.23;;
19189;SDS011;9727;50.200;19.038;2023-02-26T05:53:04;9.90;;;5.67;;
19189;SDS011;9727;50.200;19.038;2023-02-26T05:55:30;12.67;;;6.20;;
19189;SDS011;9727;50.200;19.038;2023-02-26T05:57:57;10.87;;;5.70;;
19189;SDS011;9727;50.200;19.038;2023-02-26T06:00:25;10.40;;;5.30;;
19189;SDS011;9727;50.200;19.038;2023-02-26T06:02:53;8.23;;;5.23;;
19189;SDS011;9727;50.200;19.038;2023-02-26T06:05:20;12.47;;;5.87;;
19189;SDS011;9727;50.200;19.038;2023-02-26T06:07:47;11.67;;;5.83;;
19189;SDS011;9727;50.200;19.038;2023-02-26T06:10:13;8.53;;;5.03;;
19189;SDS011;9727;50.200;19.038;2023-02-26T06:12:40;9.43;;;5.77;;
19189;SDS011;9727;50.200;19.038;2023-02-26T06:15:07;10.67;;;5.40;;
19189;SDS011;9727;50.200;19.038;2023-02-26T06:17:35;9.50;;;5.50;;
19189;SDS011;9727;50.200;19.038;2023-02-26T06:20:02;10.13;;;5.37;;
19189;SDS011;9727;50.200;19.038;2023-02-26T06:22:29;8.07;;;5.47;;
19189;SDS011;9727;50.200;19.038;2023-02-26T06:24:56;11.93;;;6.00;;
19189;SDS011;9727;50.200;19.038;2023-02-26T06:27:23;10.00;;;5.83;;
19189;SDS011;9727;50.200;19.038;2023-02-26T06:29:49;8.20;;;5.33;;
19189;SDS011;9727;50.200;19.038;2023-02-26T06:32:16;8.40;;;5.70;;
19189;SDS011;9727;50.200;19.038;2023-02-26T06:34:44;10.67;;;5.43;;
19189;SDS011;9727;50.200;19.038;2023-02-26T06:37:11;9.57;;;5.60;;
19189;SDS011;9727;50.200;19.038;2023-02-26T06:39:37;10.97;;;5.33;;
19189;SDS011;9727;50.200;19.038;2023-02-26T06:42:04;12.67;;;6.17;;
19189;SDS011;9727;50.200;19.038;2023-02-26T06:44:30;9.17;;;5.83;;
19189;SDS011;9727;50.200;19.038;2023-02-26T06:46:57;10.43;;;5.57;;
19189;SDS011;9727;50.200;19.038;2023-02-26T06:49:24;13.50;;;5.80;;
19189;SDS011;9727;50.200;19.038;2023-02-26T06:51:54;10.60;;;5.00;;
19189;SDS011;9727;50.200;19.038;2023-02-26T06:54:21;9.43;;;5.47;;
19189;SDS011;9727;50.200;19.038;2023-02-26T06:56:48;10.93;;;5.63;;
19189;SDS011;9727;50.200;19.038;2023-02-26T06:59:14;11.87;;;5.47;;
19189;SDS011;9727;50.200;19.038;2023-02-26T07:01:41;12.27;;;6.10;;
19189;SDS011;9727;50.200;19.038;2023-02-26T07:04:08;11.13;;;7.00;;
19189;SDS011;9727;50.200;19.038;2023-02-26T07:06:34;9.90;;;5.93;;
19189;SDS011;9727;50.200;19.038;2023-02-26T07:09:02;9.77;;;6.13;;
19189;SDS011;9727;50.200;19.038;2023-02-26T07:11:29;10.43;;;6.90;;
19189;SDS011;9727;50.200;19.038;2023-02-26T07:13:55;11.50;;;6.87;;
19189;SDS011;9727;50.200;19.038;2023-02-26T07:16:22;9.23;;;6.27;;
19189;SDS011;9727;50.200;19.038;2023-02-26T07:18:49;11.43;;;6.60;;
19189;SDS011;9727;50.200;19.038;2023-02-26T07:21:15;12.70;;;8.10;;
19189;SDS011;9727;50.200;19.038;2023-02-26T07:23:42;15.10;;;7.77;;
19189;SDS011;9727;50.200;19.038;2023-02-26T07:26:10;12.57;;;7.27;;
19189;SDS011;9727;50.200;19.038;2023-02-26T07:28:36;15.03;;;7.47;;
19189;SDS011;9727;50.200;19.038;2023-02-26T07:31:03;13.40;;;7.37;;
19189;SDS011;9727;50.200;19.038;2023-02-26T07:33:30;12.87;;;7.57;;
19189;SDS011;9727;50.200;19.038;2023-02-26T07:35:56;13.23;;;7.77;;
19189;SDS011;9727;50.200;19.038;2023-02-26T07:38:23;22.27;;;11.13;;
19189;SDS011;9727;50.200;19.038;2023-02-26T07:40:50;19.73;;;9.87;;
19189;SDS011;9727;50.200;19.038;2023-02-26T07:43:18;13.23;;;8.90;;
19189;SDS011;9727;50.200;19.038;2023-02-26T07:45:44;17.37;;;9.10;;
19189;SDS011;9727;50.200;19.038;2023-02-26T07:48:11;14.63;;;9.50;;
19189;SDS011;9727;50.200;19.038;2023-02-26T07:50:37;15.97;;;9.17;;
19189;SDS011;9727;50.200;19.038;2023-02-26T07:53:04;13.33;;;9.23;;
19189;SDS011;9727;50.200;19.038;2023-02-26T07:55:31;18.53;;;10.80;;
19189;SDS011;9727;50.200;19.038;2023-02-26T07:57:57;14.67;;;9.10;;
19189;SDS011;9727;50.200;19.038;2023-02-26T08:00:37;14.13;;;8.73;;
19189;SDS011;9727;50.200;19.038;2023-02-26T08:03:04;15.37;;;8.47;;
19189;SDS011;9727;50.200;19.038;2023-02-26T08:05:33;15.07;;;9.10;;
19189;SDS011;9727;50.200;19.038;2023-02-26T08:08:00;14.07;;;8.17;;
19189;SDS011;9727;50.200;19.038;2023-02-26T08:10:27;18.07;;;8.00;;
19189;SDS011;9727;50.200;19.038;2023-02-26T08:12:53;18.83;;;8.90;;
19189;SDS011;9727;50.200;19.038;2023-02-26T08:15:20;45.93;;;17.80;;
19189;SDS011;9727;50.200;19.038;2023-02-26T08:17:50;27.80;;;12.77;;
19189;SDS011;9727;50.200;19.038;2023-02-26T08:20:17;11.10;;;6.60;;
19189;SDS011;9727;50.200;19.038;2023-02-26T08:22:43;12.27;;;6.00;;
19189;SDS011;9727;50.200;19.038;2023-02-26T08:25:10;9.97;;;5.90;;
19189;SDS011;9727;50.200;19.038;2023-02-26T08:27:37;12.67;;;6.90;;
19189;SDS011;9727;50.200;19.038;2023-02-26T08:30:04;11.60;;;6.07;;
19189;SDS011;9727;50.200;19.038;2023-02-26T08:32:31;10.33;;;6.20;;
19189;SDS011;9727;50.200;19.038;2023-02-26T08:35:08;12.63;;;7.70;;
19189;SDS011;9727;50.200;19.038;2023-02-26T08:37:35;12.20;;;8.07;;
19189;SDS011;9727;50.200;19.038;2023-02-26T08:40:03;12.57;;;7.07;;
19189;SDS011;9727;50.200;19.038;2023-02-26T08:42:30;17.17;;;7.93;;
19189;SDS011;9727;50.200;19.038;2023-02-26T08:44:56;6.70;;;4.47;;
19189;SDS011;9727;50.200;19.038;2023-02-26T08:47:23;9.13;;;5.10;;
19189;SDS011;9727;50.200;19.038;2023-02-26T08:49:49;13.90;;;5.90;;
19189;SDS011;9727;50.200;19.038;2023-02-26T08:52:18;9.33;;;4.83;;
19189;SDS011;9727;50.200;19.038;2023-02-26T08:54:44;6.93;;;4.20;;
19189;SDS011;9727;50.200;19.038;2023-02-26T08:57:11;11.97;;;5.50;;
19189;SDS011;9727;50.200;19.038;2023-02-26T08:59:37;11.57;;;5.63;;
19189;SDS011;9727;50.200;19.038;2023-02-26T09:02:04;7.60;;;4.70;;
19189;SDS011;9727;50.200;19.038;2023-02-26T09:04:31;7.37;;;4.57;;
19189;SDS011;9727;50.200;19.038;2023-02-26T09:06:57;8.77;;;5.03;;
19189;SDS011;9727;50.200;19.038;2023-02-26T09:09:27;10.17;;;4.97;;
19189;SDS011;9727;50.200;19.038;2023-02-26T09:11:54;8.57;;;5.03;;
19189;SDS011;9727;50.200;19.038;2023-02-26T09:14:20;6.70;;;3.80;;
19189;SDS011;9727;50.200;19.038;2023-02-26T09:16:47;9.57;;;5.27;;
19189;SDS011;9727;50.200;19.038;2023-02-26T09:19:13;7.47;;;4.47;;
19189;SDS011;9727;50.200;19.038;2023-02-26T09:21:40;9.47;;;4.20;;
19189;SDS011;9727;50.200;19.038;2023-02-26T09:24:07;10.07;;;4.90;;
19189;SDS011;9727;50.200;19.038;2023-02-26T09:26:35;7.30;;;4.60;;
19189;SDS011;9727;50.200;19.038;2023-02-26T09:29:02;7.97;;;4.40;;
19189;SDS011;9727;50.200;19.038;2023-02-26T09:31:29;8.70;;;5.97;;
19189;SDS011;9727;50.200;19.038;2023-02-26T09:33:55;10.40;;;5.20;;
19189;SDS011;9727;50.200;19.038;2023-02-26T09:36:22;7.87;;;4.60;;
19189;SDS011;9727;50.200;19.038;2023-02-26T09:38:48;8.47;;;4.83;;
19189;SDS011;9727;50.200;19.038;2023-02-26T09:41:16;8.33;;;4.80;;
19189;SDS011;9727;50.200;19.038;2023-02-26T09:44:06;7.07;;;4.07;;
19189;SDS011;9727;50.200;19.038;2023-02-26T09:46:37;5.53;;;3.30;;
19189;SDS011;9727;50.200;19.038;2023-02-26T09:49:08;7.97;;;3.93;;
19189;SDS011;9727;50.200;19.038;2023-02-26T09:51:41;5.43;;;2.60;;
19189;SDS011;9727;50.200;19.038;2023-02-26T09:54:12;5.57;;;2.70;;
19189;SDS011;9727;50.200;19.038;2023-02-26T09:56:40;5.73;;;3.23;;
19189;SDS011;9727;50.200;19.038;2023-02-26T09:59:09;6.20;;;3.47;;
19189;SDS011;9727;50.200;19.038;2023-02-26T10:01:37;6.50;;;3.40;;
19189;SDS011;9727;50.200;19.038;2023-02-26T10:04:10;4.93;;;3.03;;
19189;SDS011;9727;50.200;19.038;2023-02-26T10:06:41;4.57;;;2.20;;
19189;SDS011;9727;50.200;19.038;2023-02-26T10:09:15;3.03;;;2.00;;
19189;SDS011;9727;50.200;19.038;2023-02-26T10:11:47;3.17;;;2.00;;
19189;SDS011;9727;50.200;19.038;2023-02-26T10:14:19;5.43;;;2.77;;
19189;SDS011;9727;50.200;19.038;2023-02-26T10:16:48;5.47;;;3.03;;
19189;SDS011;9727;50.200;19.038;2023-02-26T10:19:17;5.43;;;3.00;;
19189;SDS011;9727;50.200;19.038;2023-02-26T10:21:45;4.03;;;2.13;;
19189;SDS011;9727;50.200;19.038;2023-02-26T10:24:14;7.83;;;2.20;;
19189;SDS011;9727;50.200;19.038;2023-02-26T10:26:44;4.90;;;2.33;;
19189;SDS011;9727;50.200;19.038;2023-02-26T10:29:14;3.93;;;2.30;;
19189;SDS011;9727;50.200;19.038;2023-02-26T10:31:47;3.70;;;1.83;;
19189;SDS011;9727;50.200;19.038;2023-02-26T10:34:16;4.40;;;2.50;;
19189;SDS011;9727;50.200;19.038;2023-02-26T10:36:46;4.23;;;2.33;;
19189;SDS011;9727;50.200;19.038;2023-02-26T10:39:20;5.60;;;2.70;;
19189;SDS011;9727;50.200;19.038;2023-02-26T10:41:47;4.43;;;2.33;;
19189;SDS011;9727;50.200;19.038;2023-02-26T10:44:15;6.07;;;2.63;;
19189;SDS011;9727;50.200;19.038;2023-02-26T10:46:50;3.87;;;2.70;;
19189;SDS011;9727;50.200;19.038;2023-02-26T10:52:04;5.40;;;2.80;;
19189;SDS011;9727;50.200;19.038;2023-02-26T10:54:35;5.43;;;2.87;;
19189;SDS011;9727;50.200;19.038;2023-02-26T10:57:03;3.77;;;2.27;;
19189;SDS011;9727;50.200;19.038;2023-02-26T10:59:30;4.87;;;2.53;;
19189;SDS011;9727;50.200;19.038;2023-02-26T11:01:58;4.67;;;2.60;;
19189;SDS011;9727;50.200;19.038;2023-02-26T11:04:26;3.70;;;2.30;;
19189;SDS011;9727;50.200;19.038;2023-02-26T11:06:54;7.17;;;3.30;;
19189;SDS011;9727;50.200;19.038;2023-02-26T11:09:23;7.40;;;3.63;;
19189;SDS011;9727;50.200;19.038;2023-02-26T11:11:51;7.33;;;3.70;;
19189;SDS011;9727;50.200;19.038;2023-02-26T11:14:27;7.20;;;4.00;;
19189;SDS011;9727;50.200;19.038;2023-02-26T11:16:55;6.90;;;3.83;;
19189;SDS011;9727;50.200;19.038;2023-02-26T11:19:26;9.13;;;3.90;;
19189;SDS011;9727;50.200;19.038;2023-02-26T11:21:53;7.50;;;4.00;;
19189;SDS011;9727;50.200;19.038;2023-02-26T11:24:29;13.80;;;5.27;;
19189;SDS011;9727;50.200;19.038;2023-02-26T11:26:57;4.73;;;3.37;;
19189;SDS011;9727;50.200;19.038;2023-02-26T11:29:31;12.03;;;4.47;;
19189;SDS011;9727;50.200;19.038;2023-02-26T11:31:58;8.87;;;3.30;;
19189;SDS011;9727;50.200;19.038;2023-02-26T11:34:28;7.47;;;2.93;;
19189;SDS011;9727;50.200;19.038;2023-02-26T11:36:56;6.07;;;3.83;;
19189;SDS011;9727;50.200;19.038;2023-02-26T11:39:24;6.47;;;3.30;;
19189;SDS011;9727;50.200;19.038;2023-02-26T11:41:52;9.57;;;3.37;;
19189;SDS011;9727;50.200;19.038;2023-02-26T11:44:20;4.33;;;2.20;;
19189;SDS011;9727;50.200;19.038;2023-02-26T11:46:48;9.77;;;3.37;;
19189;SDS011;9727;50.200;19.038;2023-02-26T11:49:16;7.00;;;3.40;;
19189;SDS011;9727;50.200;19.038;2023-02-26T11:51:46;7.03;;;3.23;;
19189;SDS011;9727;50.200;19.038;2023-02-26T11:54:19;6.53;;;3.30;;
19189;SDS011;9727;50.200;19.038;2023-02-26T11:56:46;6.97;;;3.40;;
19189;SDS011;9727;50.200;19.038;2023-02-26T11:59:15;8.13;;;3.60;;
19189;SDS011;9727;50.200;19.038;2023-02-26T12:01:42;12.03;;;5.03;;
19189;SDS011;9727;50.200;19.038;2023-02-26T12:04:09;7.47;;;3.50;;
19189;SDS011;9727;50.200;19.038;2023-02-26T12:06:36;6.13;;;3.20;;
19189;SDS011;9727;50.200;19.038;2023-02-26T12:09:04;9.43;;;4.07;;
19189;SDS011;9727;50.200;19.038;2023-02-26T12:11:45;7.07;;;3.73;;
19189;SDS011;9727;50.200;19.038;2023-02-26T12:14:17;9.03;;;4.03;;
19189;SDS011;9727;50.200;19.038;2023-02-26T12:16:49;10.27;;;4.20;;
19189;SDS011;9727;50.200;19.038;2023-02-26T12:19:21;10.00;;;3.70;;
19189;SDS011;9727;50.200;19.038;2023-02-26T12:22:02;10.27;;;4.50;;
19189;SDS011;9727;50.200;19.038;2023-02-26T12:24:45;11.03;;;4.73;;
19189;SDS011;9727;50.200;19.038;2023-02-26T12:27:17;10.67;;;5.10;;
19189;SDS011;9727;50.200;19.038;2023-02-26T12:29:47;11.20;;;5.33;;
19189;SDS011;9727;50.200;19.038;2023-02-26T12:32:24;11.40;;;5.20;;
19189;SDS011;9727;50.200;19.038;2023-02-26T12:35:07;10.03;;;4.23;;
19189;SDS011;9727;50.200;19.038;2023-02-26T12:37:40;14.13;;;6.63;;
19189;SDS011;9727;50.200;19.038;2023-02-26T12:40:15;7.23;;;4.43;;
19189;SDS011;9727;50.200;19.038;2023-02-26T12:42:49;7.33;;;4.30;;
19189;SDS011;9727;50.200;19.038;2023-02-26T12:45:21;10.43;;;4.90;;
19189;SDS011;9727;50.200;19.038;2023-02-26T12:47:59;9.67;;;4.60;;
19189;SDS011;9727;50.200;19.038;2023-02-26T12:50:41;9.97;;;5.10;;
19189;SDS011;9727;50.200;19.038;2023-02-26T12:53:31;10.27;;;5.47;;
19189;SDS011;9727;50.200;19.038;2023-02-26T12:56:15;12.40;;;6.17;;
19189;SDS011;9727;50.200;19.038;2023-02-26T12:58:49;10.47;;;4.93;;
19189;SDS011;9727;50.200;19.038;2023-02-26T13:01:28;10.83;;;6.00;;
19189;SDS011;9727;50.200;19.038;2023-02-26T13:06:57;9.63;;;5.60;;
19189;SDS011;9727;50.200;19.038;2023-02-26T13:09:31;13.00;;;5.07;;
19189;SDS011;9727;50.200;19.038;2023-02-26T13:12:06;28.33;;;11.57;;
19189;SDS011;9727;50.200;19.038;2023-02-26T13:14:41;19.80;;;9.07;;
19189;SDS011;9727;50.200;19.038;2023-02-26T13:17:12;13.00;;;6.37;;
19189;SDS011;9727;50.200;19.038;2023-02-26T13:19:44;12.03;;;5.83;;
19189;SDS011;9727;50.200;19.038;2023-02-26T13:22:14;8.47;;;4.50;;
19189;SDS011;9727;50.200;19.038;2023-02-26T13:24:48;8.57;;;4.33;;
19189;SDS011;9727;50.200;19.038;2023-02-26T13:27:18;7.87;;;3.67;;
19189;SDS011;9727;50.200;19.038;2023-02-26T13:29:46;4.90;;;3.60;;
19189;SDS011;9727;50.200;19.038;2023-02-26T13:32:14;7.87;;;3.60;;
19189;SDS011;9727;50.200;19.038;2023-02-26T13:34:42;6.83;;;3.70;;
19189;SDS011;9727;50.200;19.038;2023-02-26T13:37:14;6.47;;;3.80;;
19189;SDS011;9727;50.200;19.038;2023-02-26T13:39:45;8.60;;;4.10;;
19189;SDS011;9727;50.200;19.038;2023-02-26T13:42:24;6.40;;;3.50;;
19189;SDS011;9727;50.200;19.038;2023-02-26T13:44:56;7.47;;;3.77;;
19189;SDS011;9727;50.200;19.038;2023-02-26T13:47:30;8.20;;;3.93;;
19189;SDS011;9727;50.200;19.038;2023-02-26T13:50:13;7.77;;;3.80;;
19189;SDS011;9727;50.200;19.038;2023-02-26T13:52:49;6.37;;;3.33;;
19189;SDS011;9727;50.200;19.038;2023-02-26T13:55:34;6.60;;;3.67;;
19189;SDS011;9727;50.200;19.038;2023-02-26T13:58:08;6.13;;;3.43;;
19189;SDS011;9727;50.200;19.038;2023-02-26T14:00:44;6.07;;;3.53;;
19189;SDS011;9727;50.200;19.038;2023-02-26T14:03:22;8.13;;;3.97;;
19189;SDS011;9727;50.200;19.038;2023-02-26T14:06:21;9.70;;;4.20;;
19189;SDS011;9727;50.200;19.038;2023-02-26T14:08:49;5.77;;;3.70;;
19189;SDS011;9727;50.200;19.038;2023-02-26T14:11:27;7.57;;;4.77;;
19189;SDS011;9727;50.200;19.038;2023-02-26T14:14:09;9.43;;;4.27;;
19189;SDS011;9727;50.200;19.038;2023-02-26T14:16:38;10.70;;;5.70;;
19189;SDS011;9727;50.200;19.038;2023-02-26T14:19:13;10.33;;;5.47;;
19189;SDS011;9727;50.200;19.038;2023-02-26T14:21:50;11.07;;;5.47;;
19189;SDS011;9727;50.200;19.038;2023-02-26T14:24:18;11.83;;;5.47;;
19189;SDS011;9727;50.200;19.038;2023-02-26T14:26:47;12.80;;;5.77;;
19189;SDS011;9727;50.200;19.038;2023-02-26T14:29:18;10.37;;;5.27;;
19189;SDS011;9727;50.200;19.038;2023-02-26T14:31:49;8.10;;;5.47;;
19189;SDS011;9727;50.200;19.038;2023-02-26T14:34:19;11.77;;;6.60;;
19189;SDS011;9727;50.200;19.038;2023-02-26T14:36:51;16.47;;;6.90;;
19189;SDS011;9727;50.200;19.038;2023-02-26T14:39:22;8.60;;;4.63;;
19189;SDS011;9727;50.200;19.038;2023-02-26T14:41:50;6.80;;;4.20;;
19189;SDS011;9727;50.200;19.038;2023-02-26T14:44:22;8.83;;;4.20;;
19189;SDS011;9727;50.200;19.038;2023-02-26T14:46:51;10.50;;;5.10;;
19189;SDS011;9727;50.200;19.038;2023-02-26T14:49:34;9.93;;;4.63;;
19189;SDS011;9727;50.200;19.038;2023-02-26T14:54:48;8.93;;;4.87;;
19189;SDS011;9727;50.200;19.038;2023-02-26T14:57:19;6.53;;;4.10;;
19189;SDS011;9727;50.200;19.038;2023-02-26T15:00:02;7.17;;;4.53;;
19189;SDS011;9727;50.200;19.038;2023-02-26T15:02:40;9.70;;;4.33;;
19189;SDS011;9727;50.200;19.038;2023-02-26T15:05:14;7.67;;;3.80;;